Wilkinson, Minnesota
Current Conditions -  °F | °C
As of 12:15 AM on Friday 31 Oct 2014 (Local Time) from KY49 Reporting Station
Scattered Clouds Scattered Clouds  
Wind Chill: 18°   Ceiling: Unl
Heat Index: 27°   Visibility: 10mi
Dew Point: 15°   Wind: 9mph
Humidity: 60%   Direction: 360°N
Pressure: 30.46"   Gusts: 18mph
Location:  47.3012°N, 94.5426°W
Report Text: KY49 310515Z AUTO 36008G16KT 10SM SCT035 M03/M10 A3046 RMK AO2 T10271096
Loading
Personal Weather Stations






























Interactive Weather Map
Tropical Storm Tracking
New forecast layout! Learn more

10-Day Weather Forecast

Advertisements
Track Severe Weather on mobile